CheckWX is a tool to help pilots better visualize weather data.  It is not intended as a substitute for an official pre-flight weather briefing.

08:19:02 UTC

MMCV METAR
General Pedro Jose Mendez International Airport
Ciudad Victoria, Mexico
Current

7 hours ago

MMCV 230140Z 16012KT 7SM BKN080 26/16 A2988 RMK 8/010 HZY
Observed
Apr-23 @ 01:40 UTC
Wind
  • 160° at 12 KTS
Visibility
7 SM
Flight Rules
VFR
Cloud Levels
  • Broken at 8,000' AGL
Temperature
26°C / 79°F
Dewpoint
16°C / 61°F
Humidity
54%
Altimeter
29.88" Hg
Pressure
1011.82 hPa
Previous

7 hours ago

MMCV 230050Z 16012KT 7SM BKN080 28/16 A2986 RMK 8/010 HZY
Observed
Apr-23 @ 00:50 UTC
Wind
  • 160° at 12 KTS
Visibility
7 SM
Flight Rules
VFR
Cloud Levels
  • Broken at 8,000' AGL
Temperature
28°C / 82°F
Dewpoint
16°C / 61°F
Heat Index
28°C / 82°F
Humidity
48%
Altimeter
29.86" Hg
Pressure
1011.22 hPa
Previous

9 hours ago

MMCV 222349Z 18010KT 7SM BKN080 31/13 A2984 RMK SLP090 57003 917 8/010 HZY
Observed
Apr-22 @ 23:49 UTC
Wind
  • 180° at 10 KTS
Visibility
7 SM
Flight Rules
VFR
Cloud Levels
  • Broken at 8,000' AGL
Temperature
31°C / 88°F
Dewpoint
13°C / 55°F
Humidity
33%
Altimeter
29.84" Hg
Pressure
1010.52 hPa